createdAt,value
2022-12-23T00:00:37.451Z,51.60
2022-12-23T00:03:04.296Z,47.35
2022-12-23T00:05:37.360Z,46.60
2022-12-23T00:08:04.915Z,46.83
2022-12-23T00:10:31.691Z,46.73
2022-12-23T00:13:16.915Z,47.75
2022-12-23T00:15:43.636Z,42.45
2022-12-23T00:18:10.218Z,46.63
2022-12-23T00:20:36.867Z,43.67
2022-12-23T00:23:06.116Z,41.17
2022-12-23T00:25:43.972Z,44.03
2022-12-23T00:28:14.899Z,44.83
2022-12-23T00:30:48.678Z,42.08
2022-12-23T00:33:17.274Z,42.95
2022-12-23T00:35:45.255Z,45.67
2022-12-23T00:38:12.515Z,46.40
2022-12-23T00:40:57.737Z,46.72
2022-12-23T00:43:24.422Z,48.33
2022-12-23T00:45:51.071Z,46.58
2022-12-23T00:48:36.243Z,47.97
2022-12-23T00:51:02.855Z,50.95
2022-12-23T00:53:29.975Z,48.95
2022-12-23T00:55:56.662Z,50.38
2022-12-23T00:58:23.286Z,47.08
2022-12-23T01:01:08.553Z,45.05
2022-12-23T01:03:53.396Z,46.80
2022-12-23T01:06:19.990Z,46.13
2022-12-23T01:08:46.595Z,39.75
2022-12-23T01:11:13.246Z,38.83
2022-12-23T01:13:40.202Z,38.42
2022-12-23T01:16:13.495Z,40.07
2022-12-23T01:18:43.665Z,38.30
2022-12-23T01:21:10.886Z,40.97
2022-12-23T01:23:37.601Z,40.05
2022-12-23T01:26:06.593Z,43.15
2022-12-23T01:28:34.229Z,38.72
2022-12-23T01:31:02.530Z,41.17
2022-12-23T01:33:30.894Z,39.97
2022-12-23T01:36:06.758Z,42.10
2022-12-23T01:38:34.496Z,40.65
2022-12-23T01:41:01.146Z,39.75
2022-12-23T01:43:49.451Z,39.13
2022-12-23T01:46:16.497Z,40.83
2022-12-23T01:48:51.939Z,38.63
2022-12-23T01:51:25.847Z,38.38
2022-12-23T01:53:57.528Z,38.17
2022-12-23T01:56:39.977Z,38.30
2022-12-23T01:59:36.473Z,37.92
2022-12-23T02:02:22.226Z,40.47
2022-12-23T02:04:51.214Z,41.08
2022-12-23T02:07:36.656Z,37.78
2022-12-23T02:10:05.084Z,35.40
2022-12-23T02:12:46.930Z,35.05
2022-12-23T02:15:57.396Z,36.90
2022-12-23T02:18:44.659Z,35.83
2022-12-23T02:21:31.287Z,36.03
2022-12-23T02:24:13.271Z,37.17
2022-12-23T02:26:55.094Z,37.80
2022-12-23T02:29:48.075Z,37.08
2022-12-23T02:32:24.074Z,37.55
2022-12-23T02:35:21.799Z,38.83
2022-12-23T02:37:54.415Z,38.90
2022-12-23T02:40:34.745Z,38.65
2022-12-23T02:43:16.579Z,41.72
2022-12-23T02:45:54.145Z,40.50
2022-12-23T02:48:29.381Z,42.15
2022-12-23T02:50:58.619Z,43.05
2022-12-23T02:53:34.141Z,45.30
2022-12-23T02:56:02.374Z,43.75
2022-12-23T02:58:37.489Z,45.05
2022-12-23T03:01:06.780Z,45.63
2022-12-23T03:03:35.748Z,44.10
2022-12-23T03:06:08.075Z,46.65
2022-12-23T03:08:41.857Z,44.45
2022-12-23T03:11:12.032Z,61.60
2022-12-23T03:14:20.212Z,61.80
2022-12-23T03:17:03.635Z,49.55
2022-12-23T03:19:48.941Z,48.53
2022-12-23T03:22:26.296Z,48.42
2022-12-23T03:25:14.357Z,45.85
2022-12-23T03:28:19.766Z,45.78
2022-12-23T03:30:54.055Z,43.85
2022-12-23T03:33:29.530Z,40.83
2022-12-23T03:36:02.279Z,43.22
2022-12-23T03:38:32.933Z,44.33
2022-12-23T03:41:06.806Z,44.08
2022-12-23T03:43:48.341Z,47.28
2022-12-23T03:46:23.083Z,42.90
2022-12-23T03:48:55.464Z,44.70
2022-12-23T03:52:20.820Z,38.45
2022-12-23T03:54:58.046Z,36.53
2022-12-23T03:57:37.862Z,36.20
2022-12-23T04:00:05.066Z,32.10
2022-12-23T04:02:45.120Z,24.63
2022-12-23T04:05:14.663Z,31.23
2022-12-23T04:07:47.541Z,30.77
2022-12-23T04:10:14.872Z,29.73
2022-12-23T04:12:41.888Z,33.67
2022-12-23T04:15:12.888Z,36.83
2022-12-23T04:17:40.134Z,40.95
2022-12-23T04:20:07.635Z,41.00
2022-12-23T04:22:34.241Z,39.90
2022-12-23T04:25:00.830Z,40.50
2022-12-23T04:27:27.413Z,39.90
2022-12-23T04:29:53.972Z,43.33
2022-12-23T04:32:20.639Z,41.42
2022-12-23T04:34:47.208Z,42.58
2022-12-23T04:37:13.845Z,44.10
2022-12-23T04:39:40.469Z,44.08
2022-12-23T04:42:07.085Z,48.58
2022-12-23T04:44:33.673Z,48.47
2022-12-23T04:47:00.336Z,50.08
2022-12-23T04:49:26.910Z,48.33
2022-12-23T04:51:53.553Z,41.70
2022-12-23T04:54:20.199Z,44.53
2022-12-23T04:56:46.770Z,46.33
2022-12-23T04:59:13.502Z,43.05
2022-12-23T05:01:42.145Z,40.88
2022-12-23T05:04:10.160Z,40.72
2022-12-23T05:09:04.734Z,36.40
2022-12-23T05:11:33.315Z,35.28
2022-12-23T05:14:02.918Z,33.60
2022-12-23T05:16:31.308Z,44.83
2022-12-23T05:18:58.342Z,42.53
2022-12-23T05:21:24.925Z,36.80
2022-12-23T05:23:51.882Z,49.65
2022-12-23T05:26:18.774Z,63.17
2022-12-23T05:28:45.796Z,66.95
2022-12-23T05:31:13.761Z,68.57
2022-12-23T05:33:41.186Z,82.90
2022-12-23T05:36:08.028Z,57.75
2022-12-23T05:38:34.650Z,61.40
2022-12-23T05:41:02.456Z,45.15
2022-12-23T05:48:24.773Z,70.32
2022-12-23T05:50:52.858Z,60.57
2022-12-23T05:55:50.344Z,38.63
2022-12-23T05:58:17.222Z,44.15
2022-12-23T06:00:44.094Z,35.75
2022-12-23T06:03:12.076Z,38.53
2022-12-23T06:05:40.229Z,36.38
2022-12-23T06:08:06.855Z,39.47
2022-12-23T06:10:33.465Z,37.72
2022-12-23T06:13:00.113Z,36.35
2022-12-23T06:15:26.696Z,42.58
2022-12-23T06:17:53.377Z,42.03
2022-12-23T06:20:21.143Z,38.95
2022-12-23T06:22:48.000Z,36.28
2022-12-23T06:25:14.640Z,47.40
2022-12-23T06:27:41.239Z,45.70
2022-12-23T06:30:08.429Z,41.63
2022-12-23T06:32:38.544Z,45.45
2022-12-23T06:35:07.135Z,40.90
2022-12-23T06:37:34.312Z,39.40
2022-12-23T06:40:00.941Z,38.83
2022-12-23T06:42:27.712Z,35.03
2022-12-23T06:44:54.328Z,36.45
2022-12-23T06:47:21.043Z,39.97
2022-12-23T06:49:47.643Z,46.60
2022-12-23T06:52:14.227Z,41.03
2022-12-23T06:54:40.937Z,39.58
2022-12-23T06:57:07.663Z,39.08
2022-12-23T06:59:34.273Z,38.97
2022-12-23T07:02:01.145Z,40.92
2022-12-23T07:04:27.915Z,56.43
2022-12-23T07:06:54.585Z,47.42
2022-12-23T07:09:21.201Z,44.45
2022-12-23T07:11:47.857Z,48.13
2022-12-23T07:14:14.491Z,50.08
2022-12-23T07:16:41.159Z,52.85
2022-12-23T07:19:08.027Z,82.35
2022-12-23T07:21:34.788Z,79.47
2022-12-23T07:24:01.416Z,60.85
2022-12-23T07:26:28.645Z,62.90
2022-12-23T07:28:55.228Z,67.10
2022-12-23T07:31:21.992Z,77.78
2022-12-23T07:33:48.880Z,81.03
2022-12-23T07:36:15.461Z,76.47
2022-12-23T07:38:42.078Z,72.43
2022-12-23T07:41:08.680Z,79.28
2022-12-23T07:43:35.346Z,77.68
2022-12-23T07:46:09.855Z,73.07
2022-12-23T07:48:36.665Z,63.97
2022-12-23T07:51:04.121Z,62.10
2022-12-23T07:53:31.280Z,54.13
2022-12-23T07:55:58.040Z,51.10
2022-12-23T07:58:25.270Z,46.35
2022-12-23T08:00:58.748Z,46.92
2022-12-23T08:03:25.508Z,43.72
2022-12-23T08:06:03.196Z,42.58
2022-12-23T08:08:30.072Z,43.17
2022-12-23T08:11:03.780Z,42.83
2022-12-23T08:13:33.761Z,43.15
2022-12-23T08:16:01.723Z,45.65
2022-12-23T08:20:58.664Z,42.50
2022-12-23T08:23:26.705Z,44.80
2022-12-23T08:28:26.482Z,56.25
2022-12-23T08:30:53.338Z,45.58
2022-12-23T08:33:20.068Z,44.58
2022-12-23T08:35:46.747Z,44.10
2022-12-23T08:38:13.320Z,41.65
2022-12-23T08:40:40.554Z,41.83
2022-12-23T08:43:07.945Z,38.60
2022-12-23T08:45:38.597Z,43.80
2022-12-23T08:48:08.142Z,46.30
2022-12-23T08:54:15.877Z,45.28
2022-12-23T08:56:43.039Z,54.65
2022-12-23T08:59:19.309Z,60.38
2022-12-23T09:01:47.454Z,57.03
2022-12-23T09:04:14.264Z,60.55
2022-12-23T09:06:42.295Z,63.53
2022-12-23T09:11:37.389Z,55.20
2022-12-23T09:14:05.108Z,58.13
2022-12-23T09:16:32.300Z,67.70
2022-12-23T09:18:59.200Z,78.38
2022-12-23T09:21:26.268Z,73.55
2022-12-23T09:23:53.014Z,69.28
2022-12-23T09:26:22.850Z,64.85
2022-12-23T09:28:49.760Z,61.33
2022-12-23T09:31:17.041Z,59.78
2022-12-23T09:33:48.160Z,62.03
2022-12-23T09:36:15.378Z,63.28
2022-12-23T09:38:42.275Z,46.35
2022-12-23T09:41:18.082Z,70.15
2022-12-23T09:44:07.879Z,64.72
2022-12-23T09:46:38.644Z,62.38
2022-12-23T09:49:11.568Z,62.40
2022-12-23T09:51:38.531Z,52.53
2022-12-23T09:54:17.565Z,53.25
2022-12-23T09:56:53.422Z,54.92
2022-12-23T09:59:20.188Z,56.03
2022-12-23T10:01:58.224Z,58.55
2022-12-23T10:04:40.883Z,53.75
2022-12-23T10:07:34.225Z,59.22
2022-12-23T10:10:13.809Z,48.55
2022-12-23T10:12:48.239Z,47.15
2022-12-23T10:15:31.120Z,46.13
2022-12-23T10:18:04.425Z,47.28
2022-12-23T10:20:47.386Z,41.70
2022-12-23T10:23:18.052Z,38.95
2022-12-23T10:25:51.470Z,35.83
2022-12-23T10:28:19.217Z,36.25
2022-12-23T10:33:59.453Z,33.90
2022-12-23T10:37:05.232Z,33.95
2022-12-23T10:39:42.634Z,34.95
2022-12-23T10:42:22.671Z,36.42
2022-12-23T10:45:01.061Z,31.55
2022-12-23T10:47:39.814Z,32.92
2022-12-23T10:52:59.877Z,27.67
2022-12-23T10:55:33.867Z,26.67
2022-12-23T10:58:18.494Z,28.05
2022-12-23T11:00:59.926Z,28.08
2022-12-23T11:03:42.710Z,26.42
2022-12-23T11:06:11.506Z,25.23
2022-12-23T11:08:39.871Z,25.52
2022-12-23T11:11:07.308Z,22.92
2022-12-23T11:13:43.379Z,25.08
2022-12-23T11:16:19.270Z,21.50
2022-12-23T11:18:57.056Z,21.23
2022-12-23T11:21:23.877Z,25.58
2022-12-23T11:24:16.614Z,20.45
2022-12-23T11:26:45.100Z,24.25
2022-12-23T11:29:28.064Z,22.00
2022-12-23T11:31:56.336Z,21.42
2022-12-23T11:34:25.509Z,23.15
2022-12-23T11:37:03.708Z,23.17
2022-12-23T11:39:36.737Z,23.25
2022-12-23T11:42:17.584Z,26.13
2022-12-23T11:44:48.657Z,23.90
2022-12-23T11:47:41.384Z,24.98
2022-12-23T11:50:31.035Z,23.75
2022-12-23T11:55:32.946Z,22.67
2022-12-23T11:58:01.680Z,23.50
2022-12-23T12:00:42.972Z,22.35
2022-12-23T12:03:18.947Z,23.33
2022-12-23T12:05:59.411Z,23.58
2022-12-23T12:08:33.279Z,22.67
2022-12-23T12:11:05.898Z,22.63
2022-12-23T12:13:36.585Z,24.13
2022-12-23T12:16:06.220Z,23.05
2022-12-23T12:18:34.943Z,21.60
2022-12-23T12:21:09.992Z,24.63
2022-12-23T12:24:14.839Z,22.23
2022-12-23T12:26:44.421Z,25.30
2022-12-23T12:29:26.640Z,33.05
2022-12-23T12:31:56.976Z,26.65
2022-12-23T12:34:28.605Z,23.27
2022-12-23T12:37:02.936Z,21.13
2022-12-23T12:39:53.457Z,19.35
2022-12-23T12:42:23.017Z,21.08
2022-12-23T12:44:58.507Z,20.13
2022-12-23T12:50:24.525Z,21.65
2022-12-23T12:52:56.850Z,20.73
2022-12-23T12:55:29.718Z,20.65
2022-12-23T12:57:56.528Z,19.45
2022-12-23T13:00:25.238Z,19.10
2022-12-23T13:03:19.768Z,18.90
2022-12-23T13:05:59.988Z,18.35
2022-12-23T13:08:49.455Z,18.20
2022-12-23T13:11:28.781Z,20.40
2022-12-23T13:14:13.220Z,20.27
2022-12-23T13:16:48.647Z,18.92
2022-12-23T13:19:21.210Z,18.58
2022-12-23T13:21:59.116Z,23.50
2022-12-23T13:24:38.409Z,18.83
2022-12-23T13:27:11.565Z,18.80
2022-12-23T13:29:58.529Z,19.02
2022-12-23T13:32:47.738Z,21.42
2022-12-23T13:35:42.496Z,21.30
2022-12-23T13:38:25.715Z,18.67
2022-12-23T13:41:19.155Z,22.10
2022-12-23T13:43:59.500Z,18.58
2022-12-23T13:46:44.534Z,19.80
2022-12-23T13:49:16.979Z,19.92
2022-12-23T13:51:54.672Z,18.77
2022-12-23T13:54:56.492Z,20.83
2022-12-23T13:57:44.844Z,22.23
2022-12-23T14:00:17.636Z,25.33
2022-12-23T14:02:50.885Z,25.70
2022-12-23T14:05:30.084Z,25.98
2022-12-23T14:08:00.193Z,25.33
2022-12-23T14:10:27.625Z,32.60
2022-12-23T14:13:01.859Z,33.28
2022-12-23T14:15:54.562Z,29.52
2022-12-23T14:18:43.185Z,29.75
2022-12-23T14:21:32.184Z,39.83
2022-12-23T14:24:16.043Z,35.78
2022-12-23T14:27:03.749Z,31.83
2022-12-23T14:29:46.780Z,40.20
2022-12-23T14:32:28.046Z,38.50
2022-12-23T14:35:06.105Z,31.65
2022-12-23T14:37:36.362Z,31.00
2022-12-23T14:40:37.474Z,36.55
2022-12-23T14:43:22.961Z,36.30
2022-12-23T14:45:51.148Z,49.92
2022-12-23T14:48:35.692Z,39.58
2022-12-23T14:51:08.379Z,54.15
2022-12-23T14:53:37.950Z,45.42
2022-12-23T14:56:10.975Z,37.97
2022-12-23T14:58:41.435Z,37.83
2022-12-23T15:01:16.888Z,39.45
2022-12-23T15:04:01.287Z,38.08
2022-12-23T15:06:47.526Z,39.47
2022-12-23T15:09:24.161Z,37.58
2022-12-23T15:11:51.828Z,38.88
2022-12-23T15:14:34.243Z,44.90
2022-12-23T15:17:15.239Z,42.42
2022-12-23T15:19:45.424Z,59.03
2022-12-23T15:22:21.223Z,58.30
2022-12-23T15:24:52.210Z,51.20
2022-12-23T15:27:29.291Z,47.50
2022-12-23T15:29:56.893Z,47.55
2022-12-23T15:32:25.289Z,51.67
2022-12-23T15:34:54.940Z,60.83
2022-12-23T15:37:32.584Z,64.65
2022-12-23T15:40:09.464Z,102.25
2022-12-23T15:42:38.691Z,103.75
2022-12-23T15:45:36.616Z,93.53
2022-12-23T15:48:05.378Z,63.10
2022-12-23T15:50:41.558Z,59.05
2022-12-23T15:53:10.306Z,77.13
2022-12-23T15:55:41.347Z,82.28
2022-12-23T15:58:08.666Z,92.85
2022-12-23T16:00:50.773Z,126.28
2022-12-23T16:03:39.249Z,126.45
2022-12-23T16:06:10.052Z,131.03
2022-12-23T16:08:38.035Z,155.70
2022-12-23T16:11:21.253Z,153.25
2022-12-23T16:14:25.242Z,113.68
2022-12-23T16:16:52.664Z,130.30
2022-12-23T16:19:42.917Z,137.80
2022-12-23T16:22:33.551Z,121.00
2022-12-23T16:25:24.642Z,125.03
2022-12-23T16:28:27.976Z,111.72
2022-12-23T16:30:57.620Z,126.78
2022-12-23T16:33:39.796Z,91.70
2022-12-23T16:36:32.065Z,94.28
2022-12-23T16:39:21.927Z,96.82
2022-12-23T16:41:49.789Z,97.72
2022-12-23T16:44:16.795Z,94.05
2022-12-23T16:46:46.041Z,94.40
2022-12-23T16:49:18.695Z,102.50
2022-12-23T16:51:45.764Z,89.63
2022-12-23T16:54:18.695Z,86.65
2022-12-23T16:56:49.976Z,81.45
2022-12-23T16:59:16.927Z,79.47
2022-12-23T17:01:46.089Z,89.30
2022-12-23T17:04:14.592Z,80.22
2022-12-23T17:06:41.857Z,81.25
2022-12-23T17:09:10.211Z,69.38
2022-12-23T17:11:47.955Z,64.88
2022-12-23T17:14:20.821Z,131.43
2022-12-23T17:16:48.291Z,115.78
2022-12-23T17:19:15.396Z,95.28
2022-12-23T17:21:44.671Z,89.85
2022-12-23T17:24:17.384Z,71.25
2022-12-23T17:26:44.242Z,58.95
2022-12-23T17:29:12.881Z,60.63
2022-12-23T17:31:41.171Z,74.57
2022-12-23T17:34:11.859Z,62.78
2022-12-23T17:36:41.935Z,111.78
2022-12-23T17:39:11.469Z,97.18
2022-12-23T17:41:39.871Z,70.82
2022-12-23T17:44:07.375Z,52.97
2022-12-23T17:46:34.488Z,72.55
2022-12-23T17:49:01.214Z,64.53
2022-12-23T17:51:27.914Z,67.72
2022-12-23T17:53:57.793Z,79.32
2022-12-23T17:56:27.678Z,87.55
2022-12-23T17:58:54.501Z,91.03
2022-12-23T18:01:30.152Z,84.18
2022-12-23T18:03:58.021Z,90.70
2022-12-23T18:06:27.406Z,87.35
2022-12-23T18:08:54.212Z,85.60
2022-12-23T18:11:27.481Z,68.38
2022-12-23T18:13:54.622Z,65.70
2022-12-23T18:16:21.315Z,60.70
2022-12-23T18:18:48.621Z,60.83
2022-12-23T18:21:22.615Z,59.47
2022-12-23T18:23:49.472Z,62.30
2022-12-23T18:26:16.191Z,65.57
2022-12-23T18:28:44.036Z,82.65
2022-12-23T18:31:20.279Z,107.80
2022-12-23T18:33:47.711Z,134.18
2022-12-23T18:36:30.375Z,82.00
2022-12-23T18:38:57.742Z,70.70
2022-12-23T18:41:25.543Z,92.78
2022-12-23T18:43:53.428Z,81.65
2022-12-23T18:46:20.671Z,68.90
2022-12-23T18:48:48.288Z,62.03
2022-12-23T18:51:17.125Z,59.40
2022-12-23T18:53:43.858Z,56.88
2022-12-23T18:56:15.215Z,66.85
2022-12-23T18:58:42.246Z,70.10
2022-12-23T19:01:12.962Z,57.53
2022-12-23T19:03:39.911Z,54.35
2022-12-23T19:06:08.942Z,48.42
2022-12-23T19:08:37.286Z,60.33
2022-12-23T19:11:14.338Z,64.93
2022-12-23T19:13:41.280Z,59.17
2022-12-23T19:16:08.415Z,56.75
2022-12-23T19:18:35.093Z,57.83
2022-12-23T19:21:04.544Z,62.45
2022-12-23T19:23:31.418Z,56.55
2022-12-23T19:25:58.064Z,50.33
2022-12-23T19:28:26.123Z,54.83
2022-12-23T19:33:19.348Z,52.85
2022-12-23T19:35:46.695Z,56.20
2022-12-23T19:38:13.377Z,58.28
2022-12-23T19:40:40.505Z,65.78
2022-12-23T19:43:07.342Z,84.90
2022-12-23T19:45:34.305Z,80.95
2022-12-23T19:48:01.010Z,88.07
2022-12-23T19:50:27.870Z,76.30
2022-12-23T19:52:56.583Z,95.15
2022-12-23T19:55:23.602Z,111.30
2022-12-23T19:57:50.526Z,91.18
2022-12-23T20:00:17.228Z,83.93
2022-12-23T20:02:43.935Z,69.78
2022-12-23T20:05:10.607Z,72.93
2022-12-23T20:07:37.791Z,72.18
2022-12-23T20:10:05.739Z,75.22
2022-12-23T20:12:32.661Z,74.57
2022-12-23T20:14:59.456Z,77.07
2022-12-23T20:17:26.089Z,81.53
2022-12-23T20:19:52.706Z,90.38
2022-12-23T20:22:19.326Z,84.65
2022-12-23T20:24:46.070Z,95.28
2022-12-23T20:27:15.582Z,91.97
2022-12-23T20:29:43.948Z,95.03
2022-12-23T20:32:10.726Z,88.10
2022-12-23T20:34:39.895Z,95.93
2022-12-23T20:37:07.422Z,142.73
2022-12-23T20:39:35.032Z,144.15
2022-12-23T20:42:01.794Z,100.30
2022-12-23T20:44:36.862Z,95.28
2022-12-23T20:47:07.884Z,84.25
2022-12-23T20:49:34.526Z,87.20
2022-12-23T20:52:01.573Z,84.80
2022-12-23T20:54:33.110Z,82.93
2022-12-23T20:57:02.624Z,81.20
2022-12-23T20:59:29.378Z,74.47
2022-12-23T21:01:59.206Z,66.63
2022-12-23T21:04:26.292Z,63.13
2022-12-23T21:06:52.967Z,67.28
2022-12-23T21:09:19.633Z,84.15
2022-12-23T21:11:48.731Z,80.85
2022-12-23T21:14:15.913Z,84.35
2022-12-23T21:16:43.447Z,85.07
2022-12-23T21:19:18.137Z,82.55
2022-12-23T21:21:46.053Z,82.93
2022-12-23T21:24:13.149Z,78.47
2022-12-23T21:26:40.368Z,88.27
2022-12-23T21:29:08.632Z,80.47
2022-12-23T21:31:38.123Z,75.95
2022-12-23T21:34:06.150Z,72.20
2022-12-23T21:39:01.132Z,76.53
2022-12-23T21:41:34.997Z,78.10
2022-12-23T21:44:02.263Z,87.18
2022-12-23T21:46:29.685Z,90.30
2022-12-23T21:48:58.084Z,93.35
2022-12-23T21:51:38.570Z,88.43
2022-12-23T21:54:07.361Z,98.00
2022-12-23T21:56:34.407Z,111.35
2022-12-23T21:59:07.780Z,115.00
2022-12-23T22:01:34.797Z,124.63
2022-12-23T22:04:01.660Z,113.03
2022-12-23T22:06:31.910Z,115.32
2022-12-23T22:08:59.171Z,112.68
2022-12-23T22:11:29.265Z,114.15
2022-12-23T22:13:58.008Z,110.03
2022-12-23T22:16:26.260Z,106.25
2022-12-23T22:18:53.707Z,90.07
2022-12-23T22:21:22.498Z,93.22
2022-12-23T22:23:50.720Z,66.50
2022-12-23T22:26:24.567Z,48.08
2022-12-23T22:28:56.838Z,44.97
2022-12-23T22:31:37.898Z,48.72
2022-12-23T22:34:05.897Z,43.92
2022-12-23T22:39:01.360Z,50.40
2022-12-23T22:41:30.014Z,49.40
2022-12-23T22:43:57.664Z,50.17
2022-12-23T22:46:25.092Z,49.08
2022-12-23T22:48:52.468Z,48.47
2022-12-23T22:53:48.912Z,46.72
2022-12-23T22:56:17.658Z,44.90
2022-12-23T22:58:44.303Z,45.15
2022-12-23T23:01:22.496Z,48.38
2022-12-23T23:03:51.209Z,47.75
2022-12-23T23:06:18.826Z,47.58
2022-12-23T23:08:45.534Z,45.42
2022-12-23T23:11:12.206Z,46.88
2022-12-23T23:13:38.980Z,50.13
2022-12-23T23:16:06.000Z,47.25
2022-12-23T23:18:32.805Z,51.77
2022-12-23T23:20:59.576Z,57.47
2022-12-23T23:23:26.300Z,60.75
2022-12-23T23:25:53.121Z,65.38
2022-12-23T23:28:19.801Z,60.28
2022-12-23T23:30:46.788Z,63.65
2022-12-23T23:33:13.834Z,65.22
2022-12-23T23:35:40.451Z,67.77
2022-12-23T23:38:07.695Z,67.90
2022-12-23T23:40:34.356Z,66.57
2022-12-23T23:43:01.061Z,66.68
2022-12-23T23:45:28.116Z,65.40
2022-12-23T23:47:55.312Z,66.23
2022-12-23T23:50:22.324Z,63.22
2022-12-23T23:52:49.110Z,61.13
2022-12-23T23:55:16.108Z,63.63
2022-12-23T23:57:42.780Z,45.67
